createdAt,value
2022-09-15T00:18:47.448Z,100243.22
2022-09-15T00:40:50.804Z,100241.03
2022-09-15T00:52:21.920Z,100248.47
2022-09-15T02:09:32.821Z,100244.06
2022-09-15T02:31:25.822Z,100264.50
2022-09-15T02:53:47.384Z,100270.72
2022-09-15T03:04:18.257Z,100272.50
2022-09-15T03:59:57.587Z,100270.84
2022-09-15T04:33:11.176Z,100268.22
2022-09-15T04:43:53.660Z,100255.22
2022-09-15T04:54:27.681Z,100263.41
2022-09-15T05:05:02.975Z,100268.66
2022-09-15T05:26:16.094Z,100281.31
2022-09-15T05:47:59.737Z,100274.59
2022-09-15T06:09:30.013Z,100283.53
2022-09-15T06:30:56.827Z,100285.91
2022-09-15T06:42:10.358Z,100277.72
2022-09-15T06:52:36.136Z,100288.47
2022-09-15T07:02:57.806Z,100289.75
2022-09-15T07:13:19.192Z,100300.06
2022-09-15T07:23:40.872Z,100296.84
2022-09-15T07:34:02.661Z,100304.50
2022-09-15T07:44:24.081Z,100321.66
2022-09-15T07:54:45.460Z,100320.50
2022-09-15T08:05:07.070Z,100319.34
2022-09-15T08:15:28.460Z,100344.72
2022-09-15T08:25:51.569Z,100349.16
2022-09-15T08:36:13.309Z,100357.63
2022-09-15T08:46:39.454Z,100359.88
2022-09-15T08:57:01.176Z,100375.69
2022-09-15T09:07:22.864Z,100370.16
2022-09-15T09:18:03.106Z,100390.47
2022-09-15T09:28:43.306Z,100413.03
2022-09-15T09:39:05.173Z,100393.47
2022-09-15T09:49:31.056Z,100383.59
2022-09-15T09:59:52.579Z,100373.63
2022-09-15T10:10:24.228Z,100372.34
2022-09-15T10:20:49.370Z,100375.69
2022-09-15T10:31:13.427Z,100375.09
2022-09-15T10:41:39.327Z,100368.41
2022-09-15T10:52:20.930Z,100364.53
2022-09-15T11:03:01.335Z,100361.50
2022-09-15T11:13:47.292Z,100368.41
2022-09-15T11:24:17.926Z,100369.63
2022-09-15T11:34:42.846Z,100359.25
2022-09-15T11:45:06.499Z,100363.91
2022-09-15T11:55:51.910Z,100366.19
2022-09-15T12:06:27.018Z,100368.63
2022-09-15T12:16:48.728Z,100368.28
2022-09-15T12:27:21.025Z,100366.13
2022-09-15T12:37:46.024Z,100399.78
2022-09-15T12:48:12.835Z,100410.13
2022-09-15T12:58:51.259Z,100412.19
2022-09-15T13:09:27.366Z,100410.56
2022-09-15T13:19:59.927Z,100415.72
2022-09-15T13:30:21.578Z,100440.72
2022-09-15T13:41:18.189Z,100429.75
2022-09-15T13:51:44.377Z,100427.19
2022-09-15T14:02:08.913Z,100418.06
2022-09-15T14:12:30.571Z,100414.34
2022-09-15T14:22:52.108Z,100400.53
2022-09-15T14:33:17.002Z,100404.72
2022-09-15T14:43:41.998Z,100410.94
2022-09-15T14:54:05.445Z,100436.78
2022-09-15T15:04:36.885Z,100441.53
2022-09-15T15:15:00.289Z,100423.94
2022-09-15T15:25:21.815Z,100412.47
2022-09-15T15:35:43.469Z,100418.09
2022-09-15T15:46:05.770Z,100428.75
2022-09-15T15:56:27.314Z,100425.44
2022-09-15T16:06:48.724Z,100424.63
2022-09-15T16:17:10.957Z,100426.72
2022-09-15T16:27:32.460Z,100436.38
2022-09-15T16:37:53.911Z,100442.97
2022-09-15T16:48:15.538Z,100446.56
2022-09-15T16:58:37.349Z,100471.41
2022-09-15T17:08:58.776Z,100463.38
2022-09-15T17:19:20.212Z,100473.38
2022-09-15T17:29:41.885Z,100462.22
2022-09-15T17:40:03.616Z,100460.75
2022-09-15T17:50:28.029Z,100473.84
2022-09-15T18:00:50.412Z,100471.47
2022-09-15T18:11:14.451Z,100461.56
2022-09-15T18:21:35.936Z,100463.22
2022-09-15T18:31:59.208Z,100468.53
2022-09-15T18:42:20.709Z,100480.03
2022-09-15T18:52:42.378Z,100476.44
2022-09-15T19:03:05.543Z,100474.16
2022-09-15T19:13:28.825Z,100479.88
2022-09-15T19:23:50.275Z,100469.69
2022-09-15T19:34:11.757Z,100471.16
2022-09-15T19:44:34.124Z,100484.84
2022-09-15T19:54:55.635Z,100479.00
2022-09-15T20:05:17.373Z,100473.63
2022-09-15T20:15:39.177Z,100489.94
2022-09-15T20:26:04.563Z,100497.84
2022-09-15T20:36:38.613Z,100495.81
2022-09-15T20:47:07.491Z,100505.94
2022-09-15T20:57:35.211Z,100510.13
2022-09-15T21:08:04.137Z,100526.09
2022-09-15T21:18:26.382Z,100518.38
2022-09-15T21:28:48.910Z,100516.81
2022-09-15T21:39:10.369Z,100512.28
2022-09-15T21:49:32.322Z,100524.06
2022-09-15T21:59:53.838Z,100516.94
2022-09-15T22:10:15.451Z,100522.88
2022-09-15T22:20:36.915Z,100532.41
2022-09-15T22:31:04.020Z,100528.34
2022-09-15T22:41:27.250Z,100523.69
2022-09-15T22:51:48.697Z,100521.56
2022-09-15T23:02:10.185Z,100516.25
2022-09-15T23:12:32.504Z,100513.72
2022-09-15T23:22:54.005Z,100505.19
2022-09-15T23:33:15.447Z,100498.75
2022-09-15T23:43:37.036Z,100503.97
2022-09-15T23:53:58.537Z,100515.13
